G.commander — DSQR5 — position and weather

sailwx.info

Track history (hours):
 
Tides and Currents Weather Stations Pressure Air Temp Water Temp Dewpoint Dewpoint Depression Visibility Wind Speed Wind Dir Waves Ship Positions

G.commander

Last reported at 2018-Feb-04 18:33 UTC. Time now 2018-Feb-19 17:58 UTC.
Position N 01°19' E 103°17'.
Warning: this ship's position is 14 days out of date.

Length 230 m; draft 7.2 m.

Type: Tanker. MMSI: 441681000.

Date/timePositionNaut miles runAvg speedWind from/ knotsBaromVisibWave heightAir tempDewpointWater temp
2018-Feb-04 18:33N 01°19' E 103°17'113.9
2018-Feb-04 18:30N 01°19' E 103°18'814.3
2018-Feb-04 17:57N 01°14' E 103°24'614.4
2018-Feb-04 17:30N 01°13' E 103°30'12 5.7
2018-Feb-04 15:22N 01°11' E 103°42'0 0.0
2018-Feb-04 14:55N 01°11' E 103°42'0 0.0
2018-Feb-04 14:04N 01°11' E 103°42'0 0.0
2018-Feb-04 13:58N 01°11' E 103°42'0 0.0
2018-Feb-04 13:28N 01°11' E 103°42'0 0.0
2018-Feb-04 12:58N 01°11' E 103°42'0 0.1
2018-Feb-04 12:16N 01°11' E 103°42'0 0.0
2018-Feb-04 11:52N 01°11' E 103°42'0 0.0
2018-Feb-04 11:19N 01°11' E 103°42'0 0.0
2018-Feb-04 09:49N 01°11' E 103°43'0 0.0
2018-Feb-04 08:58N 01°11' E 103°43'0 0.0
2018-Feb-04 08:01N 01°11' E 103°43'0 0.6
2018-Feb-04 07:55N 01°11' E 103°43'0 0.1
2018-Feb-04 07:18N 01°11' E 103°43'0 0.1
2018-Feb-04 07:01N 01°11' E 103°43'0 0.6
2018-Feb-04 06:30N 01°10' E 103°43'2 3.8
2018-Feb-04 06:01N 01°09' E 103°44'5 9.2
2018-Feb-04 05:30N 01°11' E 103°48'4 7.3
2018-Feb-04 04:59N 01°12' E 103°52'4 7.9
2018-Feb-04 04:30N 01°14' E 103°55'4 8.0
2018-Feb-04 04:00N 01°15' E 103°59'4 7.5
2018-Feb-04 03:28N 01°16' E 104°03'5 7.6
2018-Feb-04 02:47N 01°17' E 104°08'  
2018-Jan-27 07:33N 34°32' E 137°02'111.8
2018-Jan-27 07:27N 34°33' E 137°01'611.3
2018-Jan-27 06:56N 34°38' E 136°58'512.0
2018-Jan-27 06:30N 34°43' E 136°59'612.6
2018-Jan-27 06:00N 34°49' E 136°56'1 2.8
2018-Jan-27 05:30N 34°50' E 136°57'0 0.0
2018-Jan-27 05:00N 34°50' E 136°57'0 0.0
2018-Jan-27 04:30N 34°50' E 136°57'0 0.0
2018-Jan-27 04:00N 34°50' E 136°57'0 0.0
2018-Jan-27 03:06N 34°50' E 136°57'0 0.0
2018-Jan-27 02:48N 34°50' E 136°57'0 0.0
2018-Jan-27 02:30N 34°50' E 136°57'0 0.0
2018-Jan-27 02:00N 34°50' E 136°57'0 0.0
2018-Jan-27 01:30N 34°50' E 136°57'0 0.0
2018-Jan-27 01:00N 34°50' E 136°57'0 0.0
2018-Jan-27 00:30N 34°50' E 136°57'0 0.0
2018-Jan-26 23:54N 34°50' E 136°57'0 0.0
2018-Jan-26 23:30N 34°50' E 136°57'0 0.0
2018-Jan-26 23:00N 34°50' E 136°57'0 0.0
2018-Jan-26 22:30N 34°50' E 136°57'0 0.0
2018-Jan-26 21:48N 34°50' E 136°57'0 0.0
2018-Jan-26 21:18N 34°50' E 136°57'0 0.0
2018-Jan-26 21:00N 34°50' E 136°57'0 0.0
2018-Jan-26 20:30N 34°50' E 136°57'0 0.0
2018-Jan-26 20:00N 34°50' E 136°57'0 0.0
2018-Jan-26 19:30N 34°50' E 136°57'0 0.0
2018-Jan-26 18:54N 34°50' E 136°57'0 0.0
2018-Jan-26 18:30N 34°50' E 136°57'0 0.0
2018-Jan-26 18:00N 34°50' E 136°57'0 0.0
2018-Jan-26 17:30N 34°50' E 136°57'0 0.0
2018-Jan-26 17:00N 34°50' E 136°57'0 0.0
2018-Jan-26 16:30N 34°50' E 136°57'0 0.0
2018-Jan-26 16:00N 34°50' E 136°57'0 0.0
2018-Jan-26 15:30N 34°50' E 136°57'0 0.0
2018-Jan-26 14:42N 34°50' E 136°57'0 0.0
2018-Jan-26 14:24N 34°50' E 136°57'0 0.0
2018-Jan-26 13:54N 34°50' E 136°57'0 0.0
2018-Jan-26 13:30N 34°50' E 136°57'0 0.0
2018-Jan-26 13:00N 34°50' E 136°57'0 0.0
2018-Jan-26 12:24N 34°50' E 136°57'0 0.0
2018-Jan-26 11:54N 34°50' E 136°57'0 0.0
2018-Jan-26 11:30N 34°50' E 136°57'0 0.0
2018-Jan-26 11:00N 34°50' E 136°57'0 0.0
2018-Jan-26 10:24N 34°50' E 136°57'0 0.0
2018-Jan-26 10:00N 34°50' E 136°57'0 0.0
2018-Jan-26 09:30N 34°50' E 136°57'0 0.0
2018-Jan-26 08:12N 34°50' E 136°57'0 0.0
2018-Jan-26 08:00N 34°50' E 136°57'0 0.0
2018-Jan-26 07:30N 34°50' E 136°57'0 0.0
2018-Jan-26 07:00N 34°50' E 136°57'0 0.0
2018-Jan-26 06:30N 34°50' E 136°57'0 0.0
2018-Jan-26 05:48N 34°50' E 136°57'0 0.0
2018-Jan-26 05:30N 34°50' E 136°57'0 0.0
2018-Jan-26 04:54N 34°50' E 136°57'0 0.0
2018-Jan-26 04:24N 34°50' E 136°57'0 0.0
2018-Jan-26 04:00N 34°50' E 136°57'0 0.0
2018-Jan-26 03:30N 34°50' E 136°57'0 0.0
2018-Jan-26 02:54N 34°50' E 136°57'0 0.1
2018-Jan-26 02:28N 34°50' E 136°57'1 1.4
2018-Jan-26 02:00N 34°50' E 136°57'3 6.4
2018-Jan-26 01:30N 34°47' E 136°58'510.4
2018-Jan-26 01:00N 34°42' E 136°59'611.0
2018-Jan-26 00:27N 34°36' E 136°58'612.5
2018-Jan-25 23:57N 34°31' E 137°03'4 9.2
2018-Jan-25 23:30N 34°27' E 137°05'  
Track history (hours):
 
Tides and Currents Weather Stations Pressure Air Temp Water Temp Dewpoint Dewpoint Depression Visibility Wind Speed Wind Dir Waves Ship Positions

G.commander

Last reported at 2018-Feb-04 18:33 UTC. Time now 2018-Feb-19 17:58 UTC.
Position N 01°19' E 103°17'.
Warning: this ship's position is 14 days out of date.

Length 230 m; draft 7.2 m.

Type: Tanker. MMSI: 441681000.

Date/timePositionNaut miles runAvg speedWind from/ knotsBaromVisibWave heightAir tempDewpointWater temp
2018-Feb-04 18:33N 01°19' E 103°17'113.9
2018-Feb-04 18:30N 01°19' E 103°18'814.3
2018-Feb-04 17:57N 01°14' E 103°24'614.4
2018-Feb-04 17:30N 01°13' E 103°30'12 5.7
2018-Feb-04 15:22N 01°11' E 103°42'0 0.0
2018-Feb-04 14:55N 01°11' E 103°42'0 0.0
2018-Feb-04 14:04N 01°11' E 103°42'0 0.0
2018-Feb-04 13:58N 01°11' E 103°42'0 0.0
2018-Feb-04 13:28N 01°11' E 103°42'0 0.0
2018-Feb-04 12:58N 01°11' E 103°42'0 0.1
2018-Feb-04 12:16N 01°11' E 103°42'0 0.0
2018-Feb-04 11:52N 01°11' E 103°42'0 0.0
2018-Feb-04 11:19N 01°11' E 103°42'0 0.0
2018-Feb-04 09:49N 01°11' E 103°43'0 0.0
2018-Feb-04 08:58N 01°11' E 103°43'0 0.0
2018-Feb-04 08:01N 01°11' E 103°43'0 0.6
2018-Feb-04 07:55N 01°11' E 103°43'0 0.1
2018-Feb-04 07:18N 01°11' E 103°43'0 0.1
2018-Feb-04 07:01N 01°11' E 103°43'0 0.6
2018-Feb-04 06:30N 01°10' E 103°43'2 3.8
2018-Feb-04 06:01N 01°09' E 103°44'5 9.2
2018-Feb-04 05:30N 01°11' E 103°48'4 7.3
2018-Feb-04 04:59N 01°12' E 103°52'4 7.9
2018-Feb-04 04:30N 01°14' E 103°55'4 8.0
2018-Feb-04 04:00N 01°15' E 103°59'4 7.5
2018-Feb-04 03:28N 01°16' E 104°03'5 7.6
2018-Feb-04 02:47N 01°17' E 104°08'  
2018-Jan-27 07:33N 34°32' E 137°02'111.8
2018-Jan-27 07:27N 34°33' E 137°01'611.3
2018-Jan-27 06:56N 34°38' E 136°58'512.0
2018-Jan-27 06:30N 34°43' E 136°59'612.6
2018-Jan-27 06:00N 34°49' E 136°56'1 2.8
2018-Jan-27 05:30N 34°50' E 136°57'0 0.0
2018-Jan-27 05:00N 34°50' E 136°57'0 0.0
2018-Jan-27 04:30N 34°50' E 136°57'0 0.0
2018-Jan-27 04:00N 34°50' E 136°57'0 0.0
2018-Jan-27 03:06N 34°50' E 136°57'0 0.0
2018-Jan-27 02:48N 34°50' E 136°57'0 0.0
2018-Jan-27 02:30N 34°50' E 136°57'0 0.0
2018-Jan-27 02:00N 34°50' E 136°57'0 0.0
2018-Jan-27 01:30N 34°50' E 136°57'0 0.0
2018-Jan-27 01:00N 34°50' E 136°57'0 0.0
2018-Jan-27 00:30N 34°50' E 136°57'0 0.0
2018-Jan-26 23:54N 34°50' E 136°57'0 0.0
2018-Jan-26 23:30N 34°50' E 136°57'0 0.0
2018-Jan-26 23:00N 34°50' E 136°57'0 0.0
2018-Jan-26 22:30N 34°50' E 136°57'0 0.0
2018-Jan-26 21:48N 34°50' E 136°57'0 0.0
2018-Jan-26 21:18N 34°50' E 136°57'0 0.0
2018-Jan-26 21:00N 34°50' E 136°57'0 0.0
2018-Jan-26 20:30N 34°50' E 136°57'0 0.0
2018-Jan-26 20:00N 34°50' E 136°57'0 0.0
2018-Jan-26 19:30N 34°50' E 136°57'0 0.0
2018-Jan-26 18:54N 34°50' E 136°57'0 0.0
2018-Jan-26 18:30N 34°50' E 136°57'0 0.0
2018-Jan-26 18:00N 34°50' E 136°57'0 0.0
2018-Jan-26 17:30N 34°50' E 136°57'0 0.0
2018-Jan-26 17:00N 34°50' E 136°57'0 0.0
2018-Jan-26 16:30N 34°50' E 136°57'0 0.0
2018-Jan-26 16:00N 34°50' E 136°57'0 0.0
2018-Jan-26 15:30N 34°50' E 136°57'0 0.0
2018-Jan-26 14:42N 34°50' E 136°57'0 0.0
2018-Jan-26 14:24N 34°50' E 136°57'0 0.0
2018-Jan-26 13:54N 34°50' E 136°57'0 0.0
2018-Jan-26 13:30N 34°50' E 136°57'0 0.0
2018-Jan-26 13:00N 34°50' E 136°57'0 0.0
2018-Jan-26 12:24N 34°50' E 136°57'0 0.0
2018-Jan-26 11:54N 34°50' E 136°57'0 0.0
2018-Jan-26 11:30N 34°50' E 136°57'0 0.0
2018-Jan-26 11:00N 34°50' E 136°57'0 0.0
2018-Jan-26 10:24N 34°50' E 136°57'0 0.0
2018-Jan-26 10:00N 34°50' E 136°57'0 0.0
2018-Jan-26 09:30N 34°50' E 136°57'0 0.0
2018-Jan-26 08:12N 34°50' E 136°57'0 0.0
2018-Jan-26 08:00N 34°50' E 136°57'0 0.0
2018-Jan-26 07:30N 34°50' E 136°57'0 0.0
2018-Jan-26 07:00N 34°50' E 136°57'0 0.0
2018-Jan-26 06:30N 34°50' E 136°57'0 0.0
2018-Jan-26 05:48N 34°50' E 136°57'0 0.0
2018-Jan-26 05:30N 34°50' E 136°57'0 0.0
2018-Jan-26 04:54N 34°50' E 136°57'0 0.0
2018-Jan-26 04:24N 34°50' E 136°57'0 0.0
2018-Jan-26 04:00N 34°50' E 136°57'0 0.0
2018-Jan-26 03:30N 34°50' E 136°57'0 0.0
2018-Jan-26 02:54N 34°50' E 136°57'0 0.1
2018-Jan-26 02:28N 34°50' E 136°57'1 1.4
2018-Jan-26 02:00N 34°50' E 136°57'3 6.4
2018-Jan-26 01:30N 34°47' E 136°58'510.4
2018-Jan-26 01:00N 34°42' E 136°59'611.0
2018-Jan-26 00:27N 34°36' E 136°58'612.5
2018-Jan-25 23:57N 34°31' E 137°03'4 9.2
2018-Jan-25 23:30N 34°27' E 137°05'  

Dump ship's entire track history